Time;durP1;ratioP1;P1;durP2;ratioP2;P2;SDS_P1;SDS_P2;PMS_P1;PMS_P2;Temp;Humidity;BMP_temperature;BMP_pressure;BME280_temperature;BME280_humidity;BME280_pressure;Samples;Min_cycle;Max_cycle;Signal;HPM_P1;HPM_P2
2022/07/06 00:00:21;;;;;;;3.70;3.40;;;;;;;16.71;91.56;98450.34;105391;1286;22627;-79
2022/07/06 00:03:03;;;;;;;3.70;3.40;;;;;;;16.70;91.68;98450.98;105389;1286;138811;-79
2022/07/06 00:05:29;;;;;;;3.70;3.40;;;;;;;16.69;91.76;98448.91;105507;1286;22573;-78
2022/07/06 00:07:55;;;;;;;4.00;3.70;;;;;;;16.66;91.80;98453.92;105396;1287;138695;-78
2022/07/06 00:10:33;;;;;;;3.80;3.40;;;;;;;16.65;91.90;98451.25;105418;1285;22612;-80
2022/07/06 00:13:01;;;;;;;3.20;2.90;;;;;;;16.66;92.29;98456.62;105448;1284;25261;-80
2022/07/06 00:15:28;;;;;;;3.30;3.10;;;;;;;16.68;92.15;98451.66;105341;1284;138798;-80
2022/07/06 00:17:54;;;;;;;3.50;3.20;;;;;;;16.70;92.21;98445.65;105585;1287;22504;-79
2022/07/06 00:20:20;;;;;;;4.00;2.90;;;;;;;16.71;91.88;98445.59;105576;1286;138713;-79
2022/07/06 00:22:50;;;;;;;3.30;3.00;;;;;;;16.71;91.84;98447.08;105581;1284;22648;-78
2022/07/06 00:25:31;;;;;;;3.70;2.90;;;;;;;16.69;91.72;98451.92;105770;1284;25613;-78
2022/07/06 00:28:03;;;;;;;3.00;2.80;;;;;;;16.67;91.63;98453.09;105570;1284;138578;-78
2022/07/06 00:30:33;;;;;;;2.90;2.70;;;;;;;16.66;91.54;98447.98;105076;1287;23978;-79
2022/07/06 00:33:10;;;;;;;3.30;3.00;;;;;;;16.67;91.70;98445.29;105568;1284;138573;-77
2022/07/06 00:35:36;;;;;;;4.00;3.60;;;;;;;16.70;91.32;98445.77;105361;1284;22605;-79
2022/07/06 00:38:03;;;;;;;3.40;3.10;;;;;;;16.72;91.15;98441.25;105369;1284;138532;-77
2022/07/06 00:40:30;;;;;;;3.50;3.20;;;;;;;16.71;91.04;98444.50;105214;1287;25266;-79
2022/07/06 00:42:57;;;;;;;3.50;3.20;;;;;;;16.69;90.82;98438.86;105661;1283;22659;-78
2022/07/06 00:45:27;;;;;;;3.70;3.40;;;;;;;16.72;91.10;98437.72;105292;1287;138347;-79
2022/07/06 00:47:53;;;;;;;3.60;3.30;;;;;;;16.77;91.36;98437.23;105561;1284;24369;-77
2022/07/06 00:50:22;;;;;;;3.60;3.30;;;;;;;16.81;91.02;98433.63;105162;1284;138434;-77
2022/07/06 00:52:51;;;;;;;3.70;3.40;;;;;;;16.79;90.51;98437.62;105641;1284;22596;-76
2022/07/06 00:55:21;;;;;;;3.60;3.40;;;;;;;16.75;90.54;98441.77;105227;1287;25598;-77
2022/07/06 00:58:05;;;;;;;3.60;3.20;;;;;;;16.66;90.56;98439.86;105905;1287;138185;-77
2022/07/06 01:00:32;;;;;;;3.50;3.20;;;;;;;16.61;90.80;98439.11;105615;1284;22559;-77
2022/07/06 01:03:00;;;;;;;3.40;3.20;;;;;;;16.60;90.80;98434.52;105146;1284;138515;-77
2022/07/06 01:05:27;;;;;;;3.50;3.20;;;;;;;16.59;91.27;98431.39;105241;1287;22735;-77
2022/07/06 01:07:54;;;;;;;3.30;3.00;;;;;;;16.61;91.25;98429.77;105463;1286;25352;-78
2022/07/06 01:10:37;;;;;;;3.60;3.30;;;;;;;16.62;91.27;98436.14;105074;1287;22566;-78
2022/07/06 01:13:05;;;;;;;3.30;2.70;;;;;;;16.66;91.42;98440.35;105222;1284;24362;-78
2022/07/06 01:15:31;;;;;;;3.70;3.40;;;;;;;16.73;91.80;98441.95;105163;1284;138371;-78
2022/07/06 01:17:58;;;;;;;3.70;3.30;;;;;;;16.80;92.04;98439.65;105158;1285;25502;-77
2022/07/06 01:20:30;;;;;;;4.00;3.50;;;;;;;16.87;91.74;98438.19;105554;1287;138310;-78
2022/07/06 01:22:59;;;;;;;3.40;3.10;;;;;;;16.95;91.79;98436.77;105533;1284;25312;-78
2022/07/06 01:25:28;;;;;;;3.90;3.60;;;;;;;17.02;91.27;98438.95;105533;1285;25489;-78
2022/07/06 01:27:57;;;;;;;3.80;3.50;;;;;;;17.09;91.33;98441.81;105303;1287;139273;-78
2022/07/06 01:30:24;;;;;;;3.80;3.50;;;;;;;17.15;90.95;98440.34;105365;1285;24233;-78
2022/07/06 01:32:51;;;;;;;4.50;4.10;;;;;;;17.21;90.96;98437.58;105302;1287;137740;-78
2022/07/06 01:35:17;;;;;;;8.30;3.30;;;;;;;17.26;90.77;98438.02;105151;1284;22604;-78
2022/07/06 01:37:43;;;;;;;3.20;3.00;;;;;;;17.29;90.19;98445.27;105299;1286;22589;-78
2022/07/06 01:40:11;;;;;;;3.80;3.30;;;;;;;17.32;90.11;98451.47;105211;1284;138410;-78
2022/07/06 01:42:39;;;;;;;3.30;3.00;;;;;;;17.36;90.18;98451.81;106070;1284;22691;-78
2022/07/06 01:45:07;;;;;;;3.60;3.30;;;;;;;17.40;89.77;98450.33;105120;1287;137955;-78
2022/07/06 01:47:35;;;;;;;;;;;;;;;17.41;89.36;98448.08;105234;1287;23102;-78
2022/07/06 01:50:05;;;;;;;4.10;3.70;;;;;;;17.39;89.45;98448.03;104997;1287;124779;-78
2022/07/06 01:52:34;;;;;;;4.00;3.70;;;;;;;17.41;89.51;98451.64;105333;1284;25260;-78
2022/07/06 01:55:03;;;;;;;3.80;3.50;;;;;;;17.41;89.49;98448.07;105332;1286;23301;-78
2022/07/06 01:57:31;;;;;;;4.40;4.00;;;;;;;17.43;89.36;98448.33;105243;1286;138693;-78
2022/07/06 01:59:57;;;;;;;3.60;3.30;;;;;;;17.43;89.20;98451.52;105338;1286;25273;-78
2022/07/06 02:02:24;;;;;;;3.80;3.50;;;;;;;17.43;89.15;98455.92;105162;1285;138519;-78
2022/07/06 02:04:50;;;;;;;4.60;3.80;;;;;;;17.44;88.99;98455.70;105179;1287;22626;-78
2022/07/06 02:07:20;;;;;;;4.80;4.40;;;;;;;17.43;89.27;98455.27;105496;1284;25302;-79
2022/07/06 02:09:49;;;;;;;5.70;4.60;;;;;;;17.43;89.11;98454.49;105674;1284;137961;-78
2022/07/06 02:12:16;;;;;;;4.40;3.90;;;;;;;17.40;88.76;98450.05;105265;1287;23419;-78
2022/07/06 02:14:45;;;;;;;4.10;3.80;;;;;;;17.37;88.74;98444.20;105566;1285;139074;-78
2022/07/06 02:17:12;;;;;;;4.10;3.80;;;;;;;17.31;88.41;98440.19;105327;1284;23194;-78
2022/07/06 02:19:41;;;;;;;4.30;3.90;;;;;;;17.24;88.81;98441.34;105167;1286;22573;-78
2022/07/06 02:22:13;;;;;;;4.50;3.50;;;;;;;17.20;88.72;98440.50;104977;1285;138678;-78
2022/07/06 02:24:40;;;;;;;4.00;3.60;;;;;;;17.13;88.98;98443.93;105397;1284;22714;-78
2022/07/06 02:27:09;;;;;;;4.50;3.80;;;;;;;17.10;89.30;98442.46;105268;1284;138666;-78
2022/07/06 02:29:36;;;;;;;4.60;3.90;;;;;;;17.05;89.36;98443.11;105205;1284;22565;-78
2022/07/06 02:32:08;;;;;;;4.60;4.10;;;;;;;17.04;89.87;98447.96;104766;1287;138770;-78
2022/07/06 02:34:43;;;;;;;5.10;4.60;;;;;;;17.07;90.29;98448.11;105123;1285;25278;-78
2022/07/06 02:37:10;;;;;;;5.10;4.60;;;;;;;17.10;90.21;98446.64;105375;1284;22730;-78
2022/07/06 02:39:39;;;;;;;4.60;4.30;;;;;;;17.11;90.20;98450.98;105293;1284;137833;-78
2022/07/06 02:42:06;;;;;;;6.10;4.60;;;;;;;17.13;89.95;98449.05;106020;1284;23012;-80
2022/07/06 02:44:32;;;;;;;5.10;4.10;;;;;;;17.12;90.02;98450.80;105523;1284;138430;-78
2022/07/06 02:47:04;;;;;;;4.70;4.20;;;;;;;17.11;89.95;98450.20;105326;1284;30422;-78
2022/07/06 02:49:31;;;;;;;4.30;4.00;;;;;;;17.12;90.08;98453.50;105278;1284;22582;-78
2022/07/06 02:51:57;;;;;;;4.90;4.30;;;;;;;17.12;90.14;98453.13;104917;1285;138288;-78
2022/07/06 02:54:24;;;;;;;4.40;4.10;;;;;;;17.15;90.48;98455.73;105304;1286;22684;-78
2022/07/06 02:56:52;;;;;;;4.70;4.30;;;;;;;17.17;90.12;98455.17;105608;1284;138777;-78
2022/07/06 02:59:20;;;;;;;;;;;;;;;17.14;89.62;98464.73;105314;1284;22686;-78
2022/07/06 03:01:46;;;;;;;6.40;5.80;;;;;;;17.08;89.86;98468.23;105571;1285;22542;-78
2022/07/06 03:04:13;;;;;;;6.70;5.90;;;;;;;17.02;89.71;98461.84;105275;1285;138197;-78
2022/07/06 03:06:39;;;;;;;8.10;5.80;;;;;;;16.94;89.69;98457.84;105236;1285;22730;-78
2022/07/06 03:09:06;;;;;;;6.90;5.70;;;;;;;16.85;89.70;98456.23;105195;1286;138370;-77
2022/07/06 03:11:35;;;;;;;6.70;5.80;;;;;;;16.77;89.73;98462.39;105038;1286;22592;-78
2022/07/06 03:14:06;;;;;;;7.70;5.90;;;;;;;16.68;89.96;98466.95;105621;1284;138370;-77
2022/07/06 03:16:34;;;;;;;6.20;5.70;;;;;;;16.61;90.40;98460.17;105288;1285;22572;-78
2022/07/06 03:19:01;;;;;;;5.70;5.10;;;;;;;16.59;90.18;98457.43;105242;1285;22726;-77
2022/07/06 03:21:28;;;;;;;6.10;5.00;;;;;;;16.56;89.98;98458.66;105207;1286;138360;-78
2022/07/06 03:23:56;;;;;;;5.40;4.90;;;;;;;16.55;90.05;98460.92;105196;1286;22649;-78
2022/07/06 03:26:24;;;;;;;5.50;5.00;;;;;;;16.55;90.03;98466.76;105185;1284;138872;-78
2022/07/06 03:28:51;;;;;;;5.60;4.90;;;;;;;16.57;90.03;98464.27;105291;1286;22588;-78
2022/07/06 03:31:18;;;;;;;6.90;5.20;;;;;;;16.60;90.37;98465.40;105643;1284;25542;-78
2022/07/06 03:33:45;;;;;;;7.50;5.80;;;;;;;16.60;89.87;98468.97;105508;1284;138403;-78
2022/07/06 03:36:11;;;;;;;6.70;5.90;;;;;;;16.56;89.88;98468.40;105296;1285;22683;-78
2022/07/06 03:38:38;;;;;;;8.00;6.30;;;;;;;16.48;90.12;98475.05;105870;1286;138379;-78
2022/07/06 03:41:04;;;;;;;7.60;6.50;;;;;;;16.42;90.47;98482.23;105948;1286;24426;-78
2022/07/06 03:43:32;;;;;;;8.90;6.30;;;;;;;16.38;90.70;98479.39;105222;1286;24244;-78
2022/07/06 03:45:59;;;;;;;8.00;6.30;;;;;;;16.35;90.73;98485.73;105230;1285;138212;-78
2022/07/06 03:48:26;;;;;;;7.90;6.60;;;;;;;16.33;90.83;98487.98;105359;1284;22754;-78
2022/07/06 03:51:11;;;;;;;6.70;6.00;;;;;;;16.32;91.07;98492.50;105281;1286;138507;-78
2022/07/06 03:53:38;;;;;;;8.50;5.90;;;;;;;16.31;91.09;98490.20;105647;1284;24325;-78
2022/07/06 03:58:47;;;;;;;8.20;6.10;;;;;;;16.31;90.99;98493.50;105413;1286;24394;-78
2022/07/06 04:01:14;;;;;;;6.70;6.00;;;;;;;16.29;90.74;98493.84;104888;1285;25457;-78
2022/07/06 04:03:40;;;;;;;6.00;5.40;;;;;;;16.25;90.40;98493.79;105291;1286;139476;-78
2022/07/06 04:06:08;;;;;;;6.70;5.90;;;;;;;16.19;89.91;98491.90;105121;1285;22696;-78
2022/07/06 04:08:35;;;;;;;7.10;6.40;;;;;;;16.17;90.22;98491.29;105047;1284;138978;-78
2022/07/06 04:11:05;;;;;;;6.20;5.60;;;;;;;16.20;90.39;98487.83;105183;1284;22660;-78
2022/07/06 04:13:32;;;;;;;6.70;6.10;;;;;;;16.21;90.28;98488.86;105273;1285;22740;-79
2022/07/06 04:15:58;;;;;;;7.10;6.10;;;;;;;16.22;90.28;98488.48;105858;1286;138436;-78
2022/07/06 04:18:25;;;;;;;6.30;5.80;;;;;;;16.24;89.89;98490.95;105251;1286;22557;-78
2022/07/06 04:20:53;;;;;;;7.30;5.80;;;;;;;16.23;89.82;98492.70;105533;1285;138757;-79
2022/07/06 04:23:20;;;;;;;6.80;5.80;;;;;;;16.24;89.90;98497.27;105488;1285;25544;-77
2022/07/06 04:25:46;;;;;;;6.90;6.20;;;;;;;16.24;89.92;98498.36;105560;1287;22557;-78
2022/07/06 04:28:14;;;;;;;7.50;5.70;;;;;;;16.26;89.84;98498.13;105388;1285;138868;-78
2022/07/06 04:30:40;;;;;;;6.30;5.30;;;;;;;16.30;89.76;98500.80;105776;1285;25494;-78
2022/07/06 04:33:10;;;;;;;7.30;6.10;;;;;;;16.33;89.82;98500.58;105108;1285;138486;-78
2022/07/06 04:35:37;;;;;;;9.30;5.80;;;;;;;16.38;89.87;98504.83;105182;1285;25327;-78
2022/07/06 04:38:05;;;;;;;6.20;5.60;;;;;;;16.39;89.54;98508.84;105426;1284;467378;-78
2022/07/06 04:40:31;;;;;;;5.80;5.20;;;;;;;16.42;89.30;98513.45;106035;1285;22517;-78
2022/07/06 04:42:59;;;;;;;6.80;6.10;;;;;;;16.43;89.10;98516.25;105730;1286;25513;-79
2022/07/06 04:45:27;;;;;;;6.50;5.80;;;;;;;16.43;89.53;98521.86;105177;1286;138581;-80
2022/07/06 04:47:55;;;;;;;5.70;5.30;;;;;;;16.46;89.66;98523.98;105485;1285;25585;-79
2022/07/06 04:50:23;;;;;;;7.70;5.80;;;;;;;16.45;88.87;98525.42;105817;1287;138822;-79
2022/07/06 04:52:52;;;;;;;7.00;5.80;;;;;;;16.41;88.41;98534.29;105964;1284;24241;-79
2022/07/06 04:55:19;;;;;;;6.50;5.90;;;;;;;16.42;88.54;98530.55;105807;1284;22555;-79
2022/07/06 04:57:46;;;;;;;7.20;5.80;;;;;;;16.45;88.55;98527.89;105985;1284;139194;-79
2022/07/06 05:00:14;;;;;;;11.60;6.00;;;;;;;16.53;89.02;98536.15;106107;1284;22590;-79
2022/07/06 05:02:40;;;;;;;6.80;5.90;;;;;;;16.66;89.05;98542.36;105336;1285;139284;-79
2022/07/06 05:05:09;;;;;;;8.30;7.40;;;;;;;16.75;88.49;98551.39;105742;1284;25343;-79
2022/07/06 05:07:50;;;;;;;7.60;6.20;;;;;;;16.85;88.35;98557.41;106346;1284;25477;-79
2022/07/06 05:10:16;;;;;;;8.90;5.80;;;;;;;16.89;87.28;98557.33;105461;1284;137938;-79
2022/07/06 05:12:45;;;;;;;6.00;5.40;;;;;;;16.91;86.90;98559.52;105652;1285;22602;-79
2022/07/06 05:15:12;;;;;;;5.40;4.90;;;;;;;16.95;87.33;98553.45;105631;1284;138122;-78
2022/07/06 05:17:38;;;;;;;6.30;5.60;;;;;;;16.98;86.28;98552.33;105546;1286;24040;-78
2022/07/06 05:20:06;;;;;;;6.20;5.20;;;;;;;17.01;86.31;98548.63;105758;1284;137745;-78
2022/07/06 05:22:34;;;;;;;;;;;;;;;17.00;85.85;98554.24;105829;1284;22593;-78
2022/07/06 05:25:00;;;;;;;7.90;5.90;;;;;;;17.03;86.29;98558.24;105410;1285;24121;-78
2022/07/06 05:27:27;;;;;;;9.60;5.50;;;;;;;17.14;87.00;98554.66;105443;1284;138138;-78
2022/07/06 05:29:53;;;;;;;5.20;4.80;;;;;;;17.34;86.54;98560.23;105519;1284;22656;-78
2022/07/06 05:32:20;;;;;;;11.00;5.60;;;;;;;17.56;86.11;98561.38;105442;1284;139498;-78
2022/07/06 05:34:46;;;;;;;7.50;5.10;;;;;;;17.70;84.50;98560.27;105524;1284;22589;-78
2022/07/06 05:37:13;;;;;;;6.50;5.00;;;;;;;17.70;83.85;98561.91;105440;1284;22575;-78
2022/07/06 05:39:43;;;;;;;5.60;5.00;;;;;;;17.68;83.54;98563.31;105763;1284;137984;-78
2022/07/06 05:42:10;;;;;;;7.00;4.60;;;;;;;17.67;83.29;98567.19;106060;1286;22554;-79
2022/07/06 05:44:36;;;;;;;6.30;5.00;;;;;;;17.64;82.96;98568.48;105332;1284;138190;-79
2022/07/06 05:52:24;;;;;;;7.70;4.80;;;;;;;17.36;82.47;98566.70;105446;1284;138123;-78
2022/07/06 05:54:51;;;;;;;8.10;4.70;;;;;;;17.31;82.73;98566.85;105389;1285;22614;-79
2022/07/06 05:57:18;;;;;;;6.80;4.60;;;;;;;17.32;83.10;98566.75;105501;1284;137821;-79
2022/07/06 05:59:44;;;;;;;6.60;4.90;;;;;;;17.35;83.44;98571.63;106269;1284;22618;-79
2022/07/06 06:02:10;;;;;;;5.50;4.40;;;;;;;17.35;82.32;98570.41;105626;1284;137952;-79
2022/07/06 06:04:36;;;;;;;4.60;4.20;;;;;;;17.33;82.46;98571.38;105501;1285;22608;-79
2022/07/06 06:07:03;;;;;;;5.00;4.20;;;;;;;17.31;82.49;98565.93;106061;1285;22574;-79
2022/07/06 06:09:30;;;;;;;10.80;4.20;;;;;;;17.34;82.81;98568.39;105753;1285;138119;-79
2022/07/06 06:11:56;;;;;;;5.00;3.90;;;;;;;17.38;82.53;98564.11;105911;1285;22636;-79
2022/07/06 06:14:23;;;;;;;5.00;4.60;;;;;;;17.42;82.17;98563.30;105436;1287;138299;-79
2022/07/06 06:16:49;;;;;;;7.10;5.50;;;;;;;17.47;82.24;98557.73;106057;1285;24228;-80
2022/07/06 06:19:16;;;;;;;6.50;4.40;;;;;;;17.52;82.50;98555.57;105719;1285;22559;-79
2022/07/06 06:21:42;;;;;;;4.90;4.10;;;;;;;17.58;82.01;98558.39;106089;1285;138332;-81
2022/07/06 06:24:08;;;;;;;7.40;4.90;;;;;;;17.64;82.33;98558.40;105807;1287;22578;-80
2022/07/06 06:26:34;;;;;;;8.80;4.80;;;;;;;17.76;82.67;98556.17;105541;1285;138507;-79
2022/07/06 06:29:00;;;;;;;6.10;4.40;;;;;;;17.93;82.26;98551.43;105411;1285;22572;-80
2022/07/06 06:31:27;;;;;;;7.80;4.50;;;;;;;18.05;81.86;98554.78;106072;1284;22564;-81
2022/07/06 06:33:53;;;;;;;4.50;3.90;;;;;;;18.05;80.49;98559.89;105720;1284;138510;-80
2022/07/06 06:36:19;;;;;;;5.50;4.10;;;;;;;18.05;80.11;98557.48;106200;1284;23584;-80
2022/07/06 06:38:45;;;;;;;5.20;4.00;;;;;;;18.12;80.51;98559.34;106136;1284;138462;-81
2022/07/06 06:41:12;;;;;;;4.70;3.90;;;;;;;18.22;79.53;98567.00;106380;1286;24370;-81
2022/07/06 06:43:38;;;;;;;4.00;3.60;;;;;;;18.19;78.29;98572.42;105694;1286;22798;-80
2022/07/06 06:46:12;;;;;;;7.60;4.50;;;;;;;18.18;78.53;98580.38;106229;1285;138297;-80
2022/07/06 06:48:38;;;;;;;5.00;4.00;;;;;;;18.27;79.43;98581.27;105499;1287;22658;-80
2022/07/06 06:51:05;;;;;;;4.30;3.70;;;;;;;18.36;78.92;98583.82;106333;1285;138422;-81
2022/07/06 06:53:31;;;;;;;3.90;3.60;;;;;;;18.37;78.33;98584.09;105413;1288;24029;-81
2022/07/06 06:55:57;;;;;;;5.60;4.20;;;;;;;18.35;78.10;98584.89;105739;1285;25442;-80
2022/07/06 06:58:23;;;;;;;8.10;3.70;;;;;;;18.32;77.62;98579.52;106696;1285;137817;-81
2022/07/06 07:00:50;;;;;;;4.10;3.80;;;;;;;18.28;76.80;98578.73;105802;1285;26708;-81
2022/07/06 07:03:17;;;;;;;3.80;3.40;;;;;;;18.26;76.85;98573.17;105521;1285;139022;-81
2022/07/06 07:05:43;;;;;;;4.20;3.80;;;;;;;18.31;77.04;98575.16;105659;1284;25608;-80
2022/07/06 07:08:09;;;;;;;4.70;3.80;;;;;;;18.35;77.04;98573.30;105453;1285;138291;-82
2022/07/06 07:10:36;;;;;;;4.20;3.60;;;;;;;18.45;77.23;98570.81;106007;1285;22594;-81
2022/07/06 07:13:02;;;;;;;4.20;3.10;;;;;;;18.64;76.78;98571.96;106227;1285;24153;-81
2022/07/06 07:15:29;;;;;;;4.90;3.80;;;;;;;18.81;76.13;98573.95;106413;1284;137526;-82
2022/07/06 07:17:55;;;;;;;5.00;3.30;;;;;;;19.01;75.95;98580.89;106122;1285;23196;-82
2022/07/06 07:20:21;;;;;;;10.00;4.90;;;;;;;19.15;73.52;98580.73;105908;1285;138352;-81
2022/07/06 07:22:48;;;;;;;3.90;3.50;;;;;;;19.29;73.97;98576.33;106128;1285;25332;-81
2022/07/06 07:25:14;;;;;;;4.20;3.70;;;;;;;19.47;73.90;98574.99;106424;1286;24118;-82
2022/07/06 07:27:40;;;;;;;5.40;3.80;;;;;;;19.71;74.11;98577.61;106005;1285;137620;-82
2022/07/06 07:30:07;;;;;;;7.30;4.00;;;;;;;19.79;73.17;98582.45;106641;1284;22328;-82
2022/07/06 07:32:33;;;;;;;5.30;3.70;;;;;;;19.75;72.47;98584.90;106624;1284;138779;-83
2022/07/06 07:35:01;;;;;;;6.20;3.80;;;;;;;19.66;71.35;98589.50;106227;1285;23689;-84
2022/07/06 07:37:27;;;;;;;4.60;3.60;;;;;;;19.60;71.85;98587.44;105973;1285;23494;-82
2022/07/06 07:39:54;;;;;;;4.00;3.30;;;;;;;19.68;72.03;98586.70;106489;1284;137646;-82
2022/07/06 07:42:20;;;;;;;4.20;3.30;;;;;;;19.79;70.76;98589.38;106989;1284;22600;-82
2022/07/06 07:44:46;;;;;;;4.50;3.60;;;;;;;19.90;70.29;98587.95;106313;1284;138257;-81
2022/07/06 07:47:13;;;;;;;3.50;3.10;;;;;;;20.03;70.49;98589.05;107007;1285;22577;-81
2022/07/06 07:49:39;;;;;;;3.60;3.00;;;;;;;20.23;69.63;98593.11;106392;1284;22559;-82
2022/07/06 07:52:06;;;;;;;7.40;3.10;;;;;;;20.39;69.47;98593.75;106277;1285;138743;-82
2022/07/06 07:54:32;;;;;;;4.10;3.10;;;;;;;20.53;68.57;98597.37;106303;1287;22665;-81
2022/07/06 07:56:59;;;;;;;4.80;3.30;;;;;;;20.57;68.28;98598.14;105747;1285;137957;-82
2022/07/06 07:59:27;;;;;;;;;;;;;;;20.55;68.06;98605.45;106331;1287;22547;-81
2022/07/06 08:01:54;;;;;;;3.60;3.30;;;;;;;20.45;68.96;98605.21;106449;1287;22528;-82
2022/07/06 08:04:20;;;;;;;3.30;3.00;;;;;;;20.39;69.24;98600.55;106266;1285;137964;-81
2022/07/06 08:07:01;;;;;;;3.20;2.80;;;;;;;20.54;69.74;98606.03;107056;1285;25282;-82
2022/07/06 08:09:27;;;;;;;3.20;3.00;;;;;;;20.72;66.88;98602.26;106052;1287;138993;-82
2022/07/06 08:11:54;;;;;;;5.30;2.90;;;;;;;20.85;67.05;98600.49;106973;1284;22552;-82
2022/07/06 08:14:20;;;;;;;4.30;2.90;;;;;;;20.84;66.45;98593.14;106614;1284;138212;-82
2022/07/06 08:16:46;;;;;;;3.80;3.00;;;;;;;20.89;66.62;98600.06;105980;1285;22629;-82
2022/07/06 08:19:14;;;;;;;3.20;2.90;;;;;;;20.99;66.33;98603.71;106698;1285;22563;-81
2022/07/06 08:21:41;;;;;;;3.80;2.30;;;;;;;21.04;65.66;98607.23;106795;1286;138065;-81
2022/07/06 08:24:08;;;;;;;5.40;2.80;;;;;;;20.96;65.16;98601.25;106115;1285;22582;-83
2022/07/06 08:26:34;;;;;;;3.60;3.30;;;;;;;20.95;65.86;98605.14;106150;1284;137835;-83
2022/07/06 08:29:01;;;;;;;3.80;3.40;;;;;;;21.11;66.83;98604.85;106197;1284;22730;-82
2022/07/06 08:31:27;;;;;;;3.40;3.10;;;;;;;21.28;66.47;98600.88;106144;1284;22754;-83
2022/07/06 08:33:55;;;;;;;4.10;3.30;;;;;;;21.37;65.32;98598.49;105922;1284;138513;-82
2022/07/06 08:36:22;;;;;;;3.90;3.50;;;;;;;21.38;64.46;98599.50;106216;1284;22560;-83
2022/07/06 08:38:49;;;;;;;4.20;3.00;;;;;;;21.29;64.81;98605.06;106727;1284;137799;-83
2022/07/06 08:41:17;;;;;;;3.90;3.60;;;;;;;21.22;64.60;98611.09;106368;1284;22646;-81
2022/07/06 08:43:44;;;;;;;3.80;3.50;;;;;;;21.16;65.15;98610.95;106039;1284;22582;-82
2022/07/06 08:46:13;;;;;;;3.90;3.50;;;;;;;21.10;65.06;98606.44;106542;1283;137685;-82
2022/07/06 08:48:41;;;;;;;4.50;3.80;;;;;;;21.01;65.22;98612.60;105856;1284;24004;-85
2022/07/06 08:51:08;;;;;;;4.50;4.10;;;;;;;20.91;65.70;98611.73;106668;1285;137857;-82
2022/07/06 08:53:34;;;;;;;11.40;7.70;;;;;;;20.70;66.08;98625.26;106161;1284;23944;-83
2022/07/06 08:56:01;;;;;;;12.40;10.20;;;;;;;20.27;67.82;98635.73;105836;1284;22759;-80
2022/07/06 08:58:28;;;;;;;18.20;12.60;;;;;;;19.78;70.21;98642.60;105785;1284;137738;-80
2022/07/06 09:00:55;;;;;;;18.70;13.20;;;;;;;19.41;72.38;98650.44;105731;1285;23350;-80
2022/07/06 09:03:21;;;;;;;15.20;12.10;;;;;;;19.12;73.46;98651.71;105853;1284;138617;-80
2022/07/06 09:05:50;;;;;;;13.50;11.60;;;;;;;18.92;74.39;98654.58;106306;1284;22617;-79
2022/07/06 09:08:18;;;;;;;13.70;12.10;;;;;;;18.76;76.33;98660.54;106066;1284;139308;-81
2022/07/06 09:10:44;;;;;;;13.40;11.70;;;;;;;18.51;76.40;98669.26;105580;1284;24401;-79
2022/07/06 09:13:11;;;;;;;15.10;13.00;;;;;;;18.35;77.71;98669.52;105747;1284;25341;-79
2022/07/06 09:15:41;;;;;;;14.70;12.50;;;;;;;18.31;78.58;98667.86;105736;1284;139215;-79
2022/07/06 09:18:08;;;;;;;16.10;14.30;;;;;;;18.33;78.57;98669.66;106080;1284;25441;-79
2022/07/06 09:20:34;;;;;;;14.90;13.30;;;;;;;18.44;79.17;98665.84;105733;1284;139531;-79
2022/07/06 09:23:05;;;;;;;19.10;14.10;;;;;;;18.65;80.14;98659.71;106202;1284;25330;-79
2022/07/06 09:25:33;;;;;;;18.00;14.60;;;;;;;18.88;79.15;98657.39;105557;1284;22814;-79
2022/07/06 09:28:01;;;;;;;20.90;15.00;;;;;;;19.17;78.42;98654.52;105933;1284;139093;-79
2022/07/06 09:30:29;;;;;;;14.80;13.20;;;;;;;19.53;78.13;98647.01;106590;1284;23085;-80
2022/07/06 09:32:58;;;;;;;16.00;13.40;;;;;;;19.85;76.59;98643.94;106286;1284;138862;-80
2022/07/06 09:35:29;;;;;;;18.40;13.50;;;;;;;20.13;77.17;98640.42;105943;1285;22791;-81
2022/07/06 09:38:26;;;;;;;12.80;11.50;;;;;;;20.48;75.60;98638.10;106120;1284;22575;-81
2022/07/06 09:40:52;;;;;;;10.20;9.20;;;;;;;20.77;73.64;98631.27;106122;1284;22685;-82
2022/07/06 09:43:23;;;;;;;10.70;9.70;;;;;;;20.92;71.73;98626.20;105970;1284;22597;-80
2022/07/06 09:45:56;;;;;;;10.60;9.50;;;;;;;21.03;69.88;98625.34;106127;1284;137765;-81
2022/07/06 09:48:36;;;;;;;12.30;10.10;;;;;;;20.95;68.63;98629.02;105697;1285;24004;-82
2022/07/06 09:51:03;;;;;;;10.40;9.40;;;;;;;20.87;68.46;98618.83;105811;1284;137837;-82
2022/07/06 09:53:35;;;;;;;11.20;9.90;;;;;;;21.00;68.06;98614.52;105897;1284;22587;-82
2022/07/06 09:56:04;;;;;;;12.20;9.70;;;;;;;21.21;67.73;98611.11;106089;1285;22622;-83
2022/07/06 09:58:31;;;;;;;10.90;9.40;;;;;;;21.43;67.71;98606.14;105913;1285;23393;-81
2022/07/06 10:00:58;;;;;;;10.30;9.40;;;;;;;21.71;67.09;98610.02;105701;1285;22582;-81
2022/07/06 10:03:24;;;;;;;9.70;8.80;;;;;;;21.96;65.12;98613.05;106000;1284;137792;-81
2022/07/06 10:05:51;;;;;;;11.70;8.90;;;;;;;22.16;63.64;98613.92;105857;1284;22818;-82
2022/07/06 10:08:17;;;;;;;10.20;9.00;;;;;;;22.23;62.97;98619.57;105752;1284;137951;-81
2022/07/06 10:10:44;;;;;;;9.30;8.40;;;;;;;22.11;63.70;98623.10;105800;1284;23297;-82
2022/07/06 10:13:27;;;;;;;8.90;8.20;;;;;;;21.86;62.19;98619.64;105374;1287;25394;-84
2022/07/06 10:15:54;;;;;;;10.20;9.30;;;;;;;21.61;61.53;98619.60;106027;1284;138176;-82
2022/07/06 10:18:20;;;;;;;13.00;10.10;;;;;;;21.35;61.87;98615.56;106541;1284;22547;-82
2022/07/06 10:20:47;;;;;;;11.60;9.60;;;;;;;21.13;62.71;98615.07;106107;1284;138217;-81
2022/07/06 10:23:14;;;;;;;16.00;9.70;;;;;;;21.02;64.08;98623.20;106344;1284;22741;-81
2022/07/06 10:25:42;;;;;;;11.20;9.50;;;;;;;21.04;64.37;98621.73;106424;1284;22622;-81
2022/07/06 10:28:14;;;;;;;9.80;8.90;;;;;;;21.06;63.82;98615.16;106054;1285;137949;-83
2022/07/06 10:30:43;;;;;;;11.70;10.50;;;;;;;21.15;64.57;98619.38;106298;1285;24391;-81
2022/07/06 10:33:11;;;;;;;9.10;8.10;;;;;;;21.38;64.26;98618.20;105764;1285;138267;-81
2022/07/06 10:35:41;;;;;;;9.70;8.60;;;;;;;21.60;63.31;98616.77;106584;1285;22725;-82
2022/07/06 10:38:09;;;;;;;7.80;7.00;;;;;;;21.80;63.89;98614.98;106754;1284;138084;-81
2022/07/06 10:43:18;;;;;;;11.90;8.70;;;;;;;21.82;61.16;98614.46;106690;1284;24541;-81
2022/07/06 10:45:45;;;;;;;8.70;7.90;;;;;;;21.81;61.63;98612.66;106639;1284;138107;-81
2022/07/06 10:48:11;;;;;;;11.10;7.70;;;;;;;21.91;62.28;98612.37;106089;1284;23386;-82
2022/07/06 10:50:39;;;;;;;7.80;7.00;;;;;;;22.08;61.29;98609.77;106274;1284;138459;-83
2022/07/06 10:53:33;;;;;;;9.10;7.60;;;;;;;22.20;59.88;98608.00;106104;1284;23027;-81
2022/07/06 10:56:02;;;;;;;8.20;7.50;;;;;;;22.48;60.77;98601.84;106151;1284;22557;-82
2022/07/06 10:58:50;;;;;;;8.30;7.40;;;;;;;22.74;58.95;98601.86;106474;1284;25543;-82
2022/07/06 11:01:18;;;;;;;8.30;7.50;;;;;;;23.02;59.52;98606.94;106135;1286;22585;-82
2022/07/06 11:03:49;;;;;;;9.00;6.60;;;;;;;23.38;58.79;98606.09;105706;1284;137644;-83
2022/07/06 11:06:24;;;;;;;8.20;6.30;;;;;;;23.65;56.93;98606.11;106034;1286;24357;-83
2022/07/06 11:09:00;;;;;;;7.90;7.10;;;;;;;23.95;56.18;98603.48;106321;1286;137986;-83
2022/07/06 11:11:33;;;;;;;6.80;6.20;;;;;;;24.38;56.70;98607.17;106977;1284;22566;-86
2022/07/06 11:14:14;;;;;;;9.10;5.60;;;;;;;24.82;54.91;98600.00;106491;1285;24315;-85
2022/07/06 11:16:49;;;;;;;7.60;5.90;;;;;;;25.12;54.03;98597.67;106046;1285;22588;-83
2022/07/06 11:19:22;;;;;;;6.00;5.40;;;;;;;25.03;52.54;98601.25;105994;1285;23190;-85
2022/07/06 11:21:51;;;;;;;9.20;5.10;;;;;;;24.94;52.33;98599.20;106516;1284;137617;-84
2022/07/06 11:24:30;;;;;;;8.90;5.50;;;;;;;24.83;52.73;98599.56;106117;1284;22580;-85
2022/07/06 11:26:57;;;;;;;;;;;;;;;24.67;52.33;98606.23;106376;1285;137732;-85
2022/07/06 11:29:25;;;;;;;6.20;4.20;;;;;;;24.44;52.10;98607.11;106105;1284;22579;-85
2022/07/06 11:31:53;;;;;;;6.80;4.50;;;;;;;24.34;52.13;98610.43;106135;1284;23066;-84
2022/07/06 11:34:24;;;;;;;;;;;;;;;24.30;52.98;98616.77;105729;1285;137394;-85
2022/07/06 11:37:08;;;;;;;8.30;4.10;;;;;;;24.25;52.79;98617.13;105703;1286;22597;-85